sensor_id;sensor_type;location;lat;lon;timestamp;temperature;humidity
13433;DHT22;6789;47.678;9.158;2023-12-07T00:29:27;4.00;99.90
13433;DHT22;6789;47.678;9.158;2023-12-07T00:34:34;3.90;99.90
13433;DHT22;6789;47.678;9.158;2023-12-07T00:44:59;3.90;99.90
13433;DHT22;6789;47.678;9.158;2023-12-07T00:50:06;4.00;99.90
13433;DHT22;6789;47.678;9.158;2023-12-07T01:00:27;3.90;99.90
13433;DHT22;6789;47.678;9.158;2023-12-07T01:05:33;3.90;99.90
13433;DHT22;6789;47.678;9.158;2023-12-07T01:38:33;3.90;99.90
13433;DHT22;6789;47.678;9.158;2023-12-07T04:05:04;3.50;99.90
13433;DHT22;6789;47.678;9.158;2023-12-07T04:51:16;2.70;99.90
13433;DHT22;6789;47.678;9.158;2023-12-07T05:02:16;2.80;99.90
13433;DHT22;6789;47.678;9.158;2023-12-07T05:07:26;2.90;99.90
13433;DHT22;6789;47.678;9.158;2023-12-07T05:12:33;3.00;99.90
13433;DHT22;6789;47.678;9.158;2023-12-07T05:17:53;2.90;99.90
13433;DHT22;6789;47.678;9.158;2023-12-07T05:23:46;2.90;99.90
13433;DHT22;6789;47.678;9.158;2023-12-07T05:29:12;2.70;99.90
13433;DHT22;6789;47.678;9.158;2023-12-07T05:34:39;2.70;99.90
13433;DHT22;6789;47.678;9.158;2023-12-07T05:39:47;2.70;99.90
13433;DHT22;6789;47.678;9.158;2023-12-07T05:45:00;2.50;99.90
13433;DHT22;6789;47.678;9.158;2023-12-07T05:50:28;2.30;99.90
13433;DHT22;6789;47.678;9.158;2023-12-07T05:55:56;2.30;99.90
13433;DHT22;6789;47.678;9.158;2023-12-07T06:01:06;2.40;99.90
13433;DHT22;6789;47.678;9.158;2023-12-07T06:06:13;2.30;99.90
13433;DHT22;6789;47.678;9.158;2023-12-07T06:11:19;2.20;99.90
13433;DHT22;6789;47.678;9.158;2023-12-07T06:16:25;2.00;99.90
13433;DHT22;6789;47.678;9.158;2023-12-07T06:21:31;1.80;99.90
13433;DHT22;6789;47.678;9.158;2023-12-07T06:26:38;1.80;99.90
13433;DHT22;6789;47.678;9.158;2023-12-07T06:31:44;1.80;99.90
13433;DHT22;6789;47.678;9.158;2023-12-07T06:37:12;1.80;99.90
13433;DHT22;6789;47.678;9.158;2023-12-07T06:48:05;1.70;99.90
13433;DHT22;6789;47.678;9.158;2023-12-07T06:53:11;1.80;99.90
13433;DHT22;6789;47.678;9.158;2023-12-07T07:08:52;2.00;99.90
13433;DHT22;6789;47.678;9.158;2023-12-07T07:14:25;2.10;99.90
13433;DHT22;6789;47.678;9.158;2023-12-07T07:25:15;2.40;99.90
13433;DHT22;6789;47.678;9.158;2023-12-07T07:30:25;2.50;99.90
13433;DHT22;6789;47.678;9.158;2023-12-07T07:46:53;2.90;99.90
13433;DHT22;6789;47.678;9.158;2023-12-07T09:10:38;4.50;99.90
13433;DHT22;6789;47.678;9.158;2023-12-07T10:16:12;4.70;99.90
13433;DHT22;6789;47.678;9.158;2023-12-07T10:37:47;5.10;99.90
13433;DHT22;6789;47.678;9.158;2023-12-07T10:42:57;5.10;99.90
13433;DHT22;6789;47.678;9.158;2023-12-07T10:48:27;5.30;99.90
13433;DHT22;6789;47.678;9.158;2023-12-07T10:53:44;5.00;99.90
13433;DHT22;6789;47.678;9.158;2023-12-07T12:03:20;5.90;99.90
13433;DHT22;6789;47.678;9.158;2023-12-07T12:29:45;5.80;99.90
13433;DHT22;6789;47.678;9.158;2023-12-07T12:46:04;5.80;99.90
13433;DHT22;6789;47.678;9.158;2023-12-07T13:02:06;5.80;99.90
13433;DHT22;6789;47.678;9.158;2023-12-07T13:13:24;5.90;99.90
13433;DHT22;6789;47.678;9.158;2023-12-07T13:18:54;5.90;99.90
13433;DHT22;6789;47.678;9.158;2023-12-07T14:47:52;5.10;99.90
13433;DHT22;6789;47.678;9.158;2023-12-07T14:52:59;5.00;99.90
13433;DHT22;6789;47.678;9.158;2023-12-07T15:08:34;4.80;99.90
13433;DHT22;6789;47.678;9.158;2023-12-07T15:14:01;4.70;99.90
13433;DHT22;6789;47.678;9.158;2023-12-07T15:29:44;4.40;99.90
13433;DHT22;6789;47.678;9.158;2023-12-07T15:40:27;4.20;99.90
13433;DHT22;6789;47.678;9.158;2023-12-07T16:08:19;3.80;99.90
13433;DHT22;6789;47.678;9.158;2023-12-07T16:13:49;3.60;99.90
13433;DHT22;6789;47.678;9.158;2023-12-07T16:19:09;3.50;99.90
13433;DHT22;6789;47.678;9.158;2023-12-07T16:30:06;3.40;99.90
13433;DHT22;6789;47.678;9.158;2023-12-07T16:35:16;3.30;99.90
13433;DHT22;6789;47.678;9.158;2023-12-07T16:40:22;3.30;99.90
13433;DHT22;6789;47.678;9.158;2023-12-07T16:45:35;3.20;99.90
13433;DHT22;6789;47.678;9.158;2023-12-07T16:51:31;3.10;99.90
13433;DHT22;6789;47.678;9.158;2023-12-07T17:02:08;2.90;99.90
13433;DHT22;6789;47.678;9.158;2023-12-07T17:07:15;2.90;99.90
13433;DHT22;6789;47.678;9.158;2023-12-07T17:12:42;2.80;99.90
13433;DHT22;6789;47.678;9.158;2023-12-07T17:23:31;2.50;99.90
13433;DHT22;6789;47.678;9.158;2023-12-07T17:28:44;2.40;99.90
13433;DHT22;6789;47.678;9.158;2023-12-07T17:33:52;2.40;99.90
13433;DHT22;6789;47.678;9.158;2023-12-07T17:44:35;2.20;99.90
13433;DHT22;6789;47.678;9.158;2023-12-07T17:49:41;2.20;99.90
13433;DHT22;6789;47.678;9.158;2023-12-07T17:54:51;2.20;99.90
13433;DHT22;6789;47.678;9.158;2023-12-07T17:59:57;2.10;99.90
13433;DHT22;6789;47.678;9.158;2023-12-07T18:05:03;2.00;99.90
13433;DHT22;6789;47.678;9.158;2023-12-07T18:10:11;2.00;99.90
13433;DHT22;6789;47.678;9.158;2023-12-07T18:15:19;1.80;99.90
13433;DHT22;6789;47.678;9.158;2023-12-07T18:20:29;1.70;99.90
13433;DHT22;6789;47.678;9.158;2023-12-07T18:25:35;1.70;99.90
13433;DHT22;6789;47.678;9.158;2023-12-07T18:30:46;1.50;99.90
13433;DHT22;6789;47.678;9.158;2023-12-07T18:36:34;1.40;99.90
13433;DHT22;6789;47.678;9.158;2023-12-07T18:41:43;1.30;99.90
13433;DHT22;6789;47.678;9.158;2023-12-07T18:46:51;1.20;99.90
13433;DHT22;6789;47.678;9.158;2023-12-07T18:57:13;1.30;99.90
13433;DHT22;6789;47.678;9.158;2023-12-07T19:02:20;1.30;99.90
13433;DHT22;6789;47.678;9.158;2023-12-07T19:07:27;1.30;99.90
13433;DHT22;6789;47.678;9.158;2023-12-07T19:12:20;1.40;99.90
13433;DHT22;6789;47.678;9.158;2023-12-07T19:17:27;1.50;99.90
13433;DHT22;6789;47.678;9.158;2023-12-07T19:22:34;1.40;99.90
13433;DHT22;6789;47.678;9.158;2023-12-07T19:27:47;1.50;99.90
13433;DHT22;6789;47.678;9.158;2023-12-07T19:33:08;1.60;99.90
13433;DHT22;6789;47.678;9.158;2023-12-07T19:38:14;1.60;99.90
13433;DHT22;6789;47.678;9.158;2023-12-07T19:43:23;1.80;99.90
13433;DHT22;6789;47.678;9.158;2023-12-07T19:48:36;1.80;99.90
13433;DHT22;6789;47.678;9.158;2023-12-07T19:53:42;1.90;99.90
13433;DHT22;6789;47.678;9.158;2023-12-07T19:58:49;1.90;99.90
13433;DHT22;6789;47.678;9.158;2023-12-07T20:03:54;1.90;99.90
13433;DHT22;6789;47.678;9.158;2023-12-07T20:09:02;1.90;99.90
13433;DHT22;6789;47.678;9.158;2023-12-07T20:14:09;2.00;99.90
13433;DHT22;6789;47.678;9.158;2023-12-07T20:19:10;2.00;99.90
13433;DHT22;6789;47.678;9.158;2023-12-07T20:24:17;2.10;99.90
13433;DHT22;6789;47.678;9.158;2023-12-07T20:29:44;2.10;99.90
13433;DHT22;6789;47.678;9.158;2023-12-07T20:35:02;2.10;99.90
13433;DHT22;6789;47.678;9.158;2023-12-07T20:40:23;2.10;99.90
13433;DHT22;6789;47.678;9.158;2023-12-07T20:45:37;2.20;99.90
13433;DHT22;6789;47.678;9.158;2023-12-07T20:50:43;2.20;99.90
13433;DHT22;6789;47.678;9.158;2023-12-07T20:55:50;2.20;99.90
13433;DHT22;6789;47.678;9.158;2023-12-07T21:01:12;2.10;99.90
13433;DHT22;6789;47.678;9.158;2023-12-07T21:06:32;2.20;99.90
13433;DHT22;6789;47.678;9.158;2023-12-07T21:12:06;2.20;99.90
13433;DHT22;6789;47.678;9.158;2023-12-07T21:17:13;2.00;99.90
13433;DHT22;6789;47.678;9.158;2023-12-07T21:22:22;1.90;99.90
13433;DHT22;6789;47.678;9.158;2023-12-07T21:27:49;1.90;99.90
13433;DHT22;6789;47.678;9.158;2023-12-07T21:33:00;2.00;99.90
13433;DHT22;6789;47.678;9.158;2023-12-07T21:38:22;1.90;99.90
13433;DHT22;6789;47.678;9.158;2023-12-07T21:44:06;2.00;99.90
13433;DHT22;6789;47.678;9.158;2023-12-07T21:49:12;2.00;99.90
13433;DHT22;6789;47.678;9.158;2023-12-07T21:54:22;2.00;99.90
13433;DHT22;6789;47.678;9.158;2023-12-07T21:59:50;2.00;99.90
13433;DHT22;6789;47.678;9.158;2023-12-07T22:04:57;1.90;99.90
13433;DHT22;6789;47.678;9.158;2023-12-07T22:10:07;1.90;99.90
13433;DHT22;6789;47.678;9.158;2023-12-07T22:15:17;1.90;99.90
13433;DHT22;6789;47.678;9.158;2023-12-07T22:20:31;1.90;99.90
13433;DHT22;6789;47.678;9.158;2023-12-07T22:25:42;1.90;99.90
13433;DHT22;6789;47.678;9.158;2023-12-07T22:30:56;1.80;99.90
13433;DHT22;6789;47.678;9.158;2023-12-07T22:36:25;1.90;99.90
13433;DHT22;6789;47.678;9.158;2023-12-07T22:41:31;1.90;99.90
13433;DHT22;6789;47.678;9.158;2023-12-07T22:46:43;1.90;99.90
13433;DHT22;6789;47.678;9.158;2023-12-07T22:51:50;1.90;99.90
13433;DHT22;6789;47.678;9.158;2023-12-07T22:57:13;2.00;99.90
13433;DHT22;6789;47.678;9.158;2023-12-07T23:02:30;2.00;99.90
13433;DHT22;6789;47.678;9.158;2023-12-07T23:13:45;2.10;99.90
13433;DHT22;6789;47.678;9.158;2023-12-07T23:19:05;2.10;99.90
13433;DHT22;6789;47.678;9.158;2023-12-07T23:23:57;2.20;99.90
13433;DHT22;6789;47.678;9.158;2023-12-07T23:28:49;2.20;99.90
13433;DHT22;6789;47.678;9.158;2023-12-07T23:33:41;2.20;99.90
13433;DHT22;6789;47.678;9.158;2023-12-07T23:38:33;2.20;99.90
13433;DHT22;6789;47.678;9.158;2023-12-07T23:43:26;2.30;99.90
13433;DHT22;6789;47.678;9.158;2023-12-07T23:48:18;2.30;99.90
13433;DHT22;6789;47.678;9.158;2023-12-07T23:53:10;2.40;99.90
13433;DHT22;6789;47.678;9.158;2023-12-07T23:58:02;2.30;99.90
